Terminal Aerodrome Forecast
Issued by NWS

Home | Current Version | Previous Version | Text Only | Print | Product List | Glossary On
Versions: 1 2 3 4 5 6 7 8 9 10 11 12 13 14 15 16 17 18 19 20 21 22 23 24 25 26 27 28 29
785
FTUS41 KOKX 250247 AAA
TAFSWF
TAF AMD
KSWF 250247Z 2503/2606 VRB05KT P6SM SCT060 BKN200
     FM251200 25006KT 6SM HZ SCT050 SCT150 BKN200
     FM251800 25010KT P6SM SCT050 BKN100 PROB30 2519/2523 TSRA
      BKN040CB
     FM260000 24005KT P6SM FEW050 BKN100
      AMD NOT SKED=

USA.gov is the U.S. government's official web portal to all federal, state and local government web resources and services.